Погода Калбатауна неделю

Восточно-Казахстанская область, Казахстан

23 - 29 июля
  • 23июля
    Сегодня
    +15°
    +31°
    Ясно и безоблачно
    ВремяПогодаТемператураВлажностьДавлениеВетер, м/сВероятность осадков
    02:00Ясно и безоблачно+17°C87 %721 мм0.5 м/с2 %
    05:00Ясно и безоблачно+17°C89 %721 мм0.6 м/с2 %
    08:00Небольшая облачность+22°C64 %722 мм0.2 м/с2 %
    11:00Облачно с прояснениями+26°C48 %721 мм0.2 м/с2 %
    14:00Ясно и безоблачно+29°C40 %720 мм0.2 м/с2 %
    17:00Ясно и безоблачно+30°C36 %719 мм0.6 м/с2 %
    20:00Ясно и безоблачно+25°C57 %719 мм2.8 м/с2 %
    23:00Облачно с прояснениями+20°C76 %718 мм1.6 м/с2 %
  • 24июля
    Среда
    +17°
    +31°
    Облачно с прояснениями
    ВремяПогодаТемператураВлажностьДавлениеВетер, м/сВероятность осадков
    02:00Практически безоблачно+17°C87 %717 мм1.6 м/с2 %
    05:00Небольшая облачность+17°C84 %717 мм1.5 м/с2 %
    08:00Облачно с прояснениями+23°C56 %718 мм0.6 м/с2 %
    11:00Облачно с прояснениями+28°C34 %718 мм0.5 м/с2 %
    14:00Облачно с прояснениями+31°C25 %717 мм1.7 м/с2 %
    17:00Облачно с прояснениями+30°C34 %717 мм1.5 м/с2 %
    20:00Облачно с прояснениями+24°C55 %717 мм1.5 м/с2 %
    23:00Облачно с прояснениями+22°C66 %717 мм1.6 м/с2 %
  • 25июля
    Четверг
    +17°
    +35°
    Практически безоблачно
    ВремяПогодаТемператураВлажностьДавлениеВетер, м/сВероятность осадков
    02:00Ясно и безоблачно+19°C78 %716 мм2.0 м/с2 %
    05:00Ясно и безоблачно+19°C81 %717 мм2.4 м/с3 %
    08:00Ясно и безоблачно+26°C54 %718 мм1.2 м/с2 %
    11:00Ясно и безоблачно+31°C34 %718 мм0.1 м/с2 %
    14:00Практически безоблачно+34°C30 %718 мм0.7 м/с4 %
    17:00Небольшая облачность+33°C30 %718 мм2.8 м/с10 %
    20:00Практически безоблачно+27°C45 %719 мм2.7 м/с2 %
    23:00Ясно и безоблачно+21°C65 %718 мм1.2 м/с2 %
  • 26июля
    Пятница
    +19°
    +35°
    Ясно и безоблачно
    ВремяПогодаТемператураВлажностьДавлениеВетер, м/сВероятность осадков
    02:00Ясно и безоблачно+18°C77 %718 мм1.5 м/с2 %
    05:00Ясно и безоблачно+19°C79 %718 мм1.5 м/с2 %
    08:00Ясно и безоблачно+26°C51 %719 мм0.7 м/с2 %
    11:00Ясно и безоблачно+31°C35 %718 мм0.9 м/с2 %
    14:00Ясно и безоблачно+35°C27 %718 мм1.3 м/с2 %
    17:00Ясно и безоблачно+35°C26 %718 мм2.0 м/с2 %
    20:00Ясно и безоблачно+28°C48 %718 мм2.9 м/с2 %
    23:00Ясно и безоблачно+24°C67 %718 мм1.4 м/с2 %
  • 27июля
    Суббота
    +22°
    +38°
    Облачно с прояснениями
    ВремяПогодаТемператураВлажностьДавлениеВетер, м/сВероятность осадков
    02:00Ясно и безоблачно+21°C68 %718 мм2.0 м/с2 %
    05:00Практически безоблачно+21°C61 %718 мм2.2 м/с2 %
    08:00Облачно с прояснениями+29°C40 %720 мм1.6 м/с3 %
    11:00Ясно и безоблачно+35°C27 %720 мм1.3 м/с11 %
    14:00Облачно с прояснениями+37°C25 %720 мм0.9 м/с21 %
    17:00Практически безоблачно+35°C26 %720 мм2.3 м/с10 %
    20:00Небольшая облачность+28°C44 %719 мм2.7 м/с2 %
    23:00Облачно с прояснениями+24°C48 %718 мм2.7 м/с10 %
Мы используем cookies
Соглашаюсь